Time;durP1;ratioP1;P1;durP2;ratioP2;P2;SDS_P1;SDS_P2;PMS_P1;PMS_P2;Temp;Humidity;BMP_temperature;BMP_pressure;BME280_temperature;BME280_humidity;BME280_pressure;Samples;Min_cycle;Max_cycle;Signal;HPM_P1;HPM_P2
2021/11/29 00:02:05;;;;;;;28.87;17.20;;;;;;;13.82;53.53;99088.31;5000808;28;20186;-74
2021/11/29 00:04:30;;;;;;;23.47;15.27;;;;;;;13.82;53.81;99090.16;5034860;28;20603;-73
2021/11/29 00:06:55;;;;;;;36.63;19.90;;;;;;;13.79;53.60;99088.59;5017092;28;20227;-73
2021/11/29 00:09:21;;;;;;;33.30;19.03;;;;;;;13.87;53.61;99090.56;5017047;28;20182;-72
2021/11/29 00:11:46;;;;;;;37.07;18.73;;;;;;;13.93;53.54;99089.97;5016821;28;20253;-72
2021/11/29 00:14:11;;;;;;;32.77;18.97;;;;;;;14.03;52.91;99088.09;5034386;28;20201;-72
2021/11/29 00:16:36;;;;;;;31.17;18.53;;;;;;;14.15;52.96;99088.81;5000516;28;20227;-73
2021/11/29 00:19:04;;;;;;;31.30;18.33;;;;;;;14.04;53.48;99095.16;5016820;28;20537;-72
2021/11/29 00:21:31;;;;;;;30.63;16.90;;;;;;;14.16;53.30;99096.72;5016835;28;20197;-73
2021/11/29 00:23:56;;;;;;;26.10;16.10;;;;;;;14.06;53.06;99095.88;5034716;28;20261;-72
2021/11/29 00:26:22;;;;;;;29.83;17.77;;;;;;;14.04;53.28;99093.31;5000128;28;20227;-72
2021/11/29 00:28:48;;;;;;;25.80;16.57;;;;;;;13.82;53.40;99099.03;5016936;28;20679;-72
2021/11/29 00:31:13;;;;;;;27.00;17.07;;;;;;;13.80;53.68;99097.50;5016616;28;20205;-72
2021/11/29 00:33:39;;;;;;;26.20;16.03;;;;;;;13.91;53.53;99111.56;5033403;28;20217;-72
2021/11/29 00:36:05;;;;;;;25.53;15.27;;;;;;;13.87;53.59;99101.28;4999985;28;20180;-72
2021/11/29 00:38:30;;;;;;;27.07;16.43;;;;;;;13.77;53.54;99098.63;4999850;28;20177;-72
2021/11/29 00:40:56;;;;;;;29.63;15.83;;;;;;;13.56;54.30;99097.94;5033822;28;20255;-72
2021/11/29 00:43:21;;;;;;;27.30;16.13;;;;;;;13.91;53.43;99102.69;5033971;28;20180;-73
2021/11/29 00:45:46;;;;;;;27.13;16.30;;;;;;;13.98;53.06;99101.97;5016284;28;20203;-72
2021/11/29 00:48:12;;;;;;;32.87;17.90;;;;;;;13.85;53.15;99108.63;5033682;28;20291;-72
2021/11/29 00:50:38;;;;;;;25.13;16.93;;;;;;;14.07;53.37;99106.44;5016015;28;20286;-72
2021/11/29 00:53:08;;;;;;;27.43;16.43;;;;;;;14.42;53.54;99112.97;5015969;28;20198;-73
2021/11/29 00:55:34;;;;;;;38.37;20.17;;;;;;;13.82;53.87;99114.28;5033628;28;20188;-74
2021/11/29 00:57:59;;;;;;;39.57;18.77;;;;;;;13.59;54.19;99108.38;5016021;28;20177;-72
2021/11/29 01:00:26;;;;;;;33.33;19.60;;;;;;;13.93;54.16;99124.84;5015983;28;20192;-72
2021/11/29 01:02:52;;;;;;;32.17;18.07;;;;;;;14.13;53.63;99123.81;5016321;28;20172;-73
2021/11/29 01:05:18;;;;;;;37.10;19.70;;;;;;;14.03;53.80;99123.81;5015765;28;20532;-73
2021/11/29 01:07:43;;;;;;;40.80;21.03;;;;;;;14.22;53.47;99116.72;5016107;28;20214;-73
2021/11/29 01:10:10;;;;;;;42.43;20.87;;;;;;;14.49;53.26;99119.47;5015479;28;20272;-72
2021/11/29 01:12:35;;;;;;;32.77;18.43;;;;;;;14.13;53.84;99123.81;5033217;28;20194;-72
2021/11/29 01:15:00;;;;;;;36.77;19.63;;;;;;;14.05;53.58;99121.84;5015693;28;20184;-72
2021/11/29 01:17:26;;;;;;;32.93;18.70;;;;;;;14.25;53.61;99124.50;5015795;28;20508;-72
2021/11/29 01:19:52;;;;;;;35.47;19.53;;;;;;;14.29;53.65;99136.63;5033603;28;20200;-72
2021/11/29 01:22:17;;;;;;;37.93;19.90;;;;;;;14.35;53.31;99126.16;4999244;28;20179;-72
2021/11/29 01:24:42;;;;;;;31.43;17.20;;;;;;;14.54;53.02;99127.97;5033544;28;20182;-73
2021/11/29 01:27:08;;;;;;;30.40;17.67;;;;;;;14.55;52.92;99120.75;5033393;28;20182;-73
2021/11/29 01:29:34;;;;;;;28.83;17.40;;;;;;;14.53;52.70;99125.44;4999229;28;20192;-72
2021/11/29 01:31:59;;;;;;;32.33;18.33;;;;;;;14.48;52.74;99120.47;4999321;28;20189;-72
2021/11/29 01:34:25;;;;;;;35.07;18.03;;;;;;;14.35;52.96;99128.84;5032969;28;20613;-72
2021/11/29 01:36:50;;;;;;;34.60;18.27;;;;;;;14.31;53.09;99126.59;5015656;28;20252;-72
2021/11/29 01:39:15;;;;;;;32.83;18.07;;;;;;;14.17;53.83;99130.59;4999151;28;20269;-73
2021/11/29 01:41:42;;;;;;;35.70;18.77;;;;;;;14.42;53.07;99126.41;5015401;28;20219;-72
2021/11/29 01:44:07;;;;;;;37.90;19.43;;;;;;;14.22;53.09;99124.78;5015550;28;20175;-72
2021/11/29 01:46:33;;;;;;;34.53;19.27;;;;;;;14.25;53.79;99132.53;5039930;28;20205;-72
2021/11/29 01:48:58;;;;;;;31.77;17.77;;;;;;;14.23;53.58;99137.22;5021883;28;20178;-72
2021/11/29 01:51:23;;;;;;;32.53;18.43;;;;;;;14.27;53.82;99134.09;5022043;28;20205;-73
2021/11/29 01:53:49;;;;;;;35.80;19.20;;;;;;;14.40;53.16;99131.06;5022064;28;20205;-73
2021/11/29 01:56:14;;;;;;;35.87;18.30;;;;;;;14.37;53.19;99134.91;5021941;28;20545;-74
2021/11/29 01:58:40;;;;;;;34.57;19.23;;;;;;;14.62;52.99;99141.50;5005853;28;20598;-73
2021/11/29 02:01:14;;;;;;;39.33;20.23;;;;;;;14.88;52.86;99141.66;5021752;28;20206;-72
2021/11/29 02:03:41;;;;;;;33.50;18.20;;;;;;;14.76;52.91;99141.97;5005695;28;20200;-72
2021/11/29 02:06:06;;;;;;;35.97;18.70;;;;;;;14.61;53.21;99137.13;5039514;28;20662;-73
2021/11/29 02:08:32;;;;;;;36.93;19.47;;;;;;;14.30;53.68;99141.00;5005525;28;20265;-72
2021/11/29 02:10:57;;;;;;;33.47;18.83;;;;;;;14.39;53.48;99140.13;5021859;28;20210;-72
2021/11/29 02:13:23;;;;;;;35.13;19.00;;;;;;;13.90;54.12;99133.19;5022317;28;20209;-72
2021/11/29 02:15:51;;;;;;;35.33;18.47;;;;;;;14.48;53.80;99146.47;5021865;28;20181;-72
2021/11/29 02:18:20;;;;;;;34.00;18.13;;;;;;;14.69;53.31;99149.78;5022303;28;20570;-72
2021/11/29 02:21:03;;;;;;;34.30;17.63;;;;;;;14.65;53.13;99146.56;5022273;28;20562;-73
2021/11/29 02:23:28;;;;;;;33.50;17.47;;;;;;;14.50;53.57;99144.50;5021809;28;20173;-72
2021/11/29 02:25:54;;;;;;;28.67;16.70;;;;;;;14.49;53.50;99151.69;5039572;28;20176;-72
2021/11/29 02:28:20;;;;;;;32.80;15.80;;;;;;;14.11;53.97;99152.59;5039300;28;20182;-73
2021/11/29 02:30:46;;;;;;;25.10;13.70;;;;;;;14.24;53.42;99153.16;5021642;28;20214;-73
2021/11/29 02:33:11;;;;;;;22.67;13.33;;;;;;;14.06;53.40;99147.69;5039544;28;20209;-73
2021/11/29 02:35:37;;;;;;;21.87;12.47;;;;;;;14.01;53.37;99151.78;5039585;28;20182;-74
2021/11/29 02:38:02;;;;;;;22.33;12.90;;;;;;;13.60;53.88;99150.25;5039736;28;20174;-74
2021/11/29 02:40:27;;;;;;;20.73;11.70;;;;;;;13.69;54.02;99146.72;5039718;28;20201;-74
2021/11/29 02:42:53;;;;;;;20.93;11.93;;;;;;;13.43;54.29;99155.34;5039632;28;20169;-73
2021/11/29 02:45:18;;;;;;;19.07;11.43;;;;;;;13.18;54.43;99153.19;5021748;28;20177;-73
2021/11/29 02:47:44;;;;;;;20.73;12.07;;;;;;;13.66;54.23;99160.41;5021844;28;20581;-72
2021/11/29 02:50:09;;;;;;;25.33;12.70;;;;;;;13.38;54.08;99149.56;5005368;28;20291;-72
2021/11/29 02:52:34;;;;;;;18.93;10.87;;;;;;;13.85;53.71;99157.75;5022079;28;20199;-73
2021/11/29 02:55:00;;;;;;;21.43;11.53;;;;;;;13.79;53.94;99152.97;5039733;28;20636;-73
2021/11/29 02:57:25;;;;;;;19.77;11.17;;;;;;;13.54;54.02;99150.84;5036538;28;20174;-74
2021/11/29 02:59:51;;;;;;;16.07;10.60;;;;;;;13.50;54.05;99158.31;5018101;28;20204;-74
2021/11/29 03:02:18;;;;;;;15.60;10.33;;;;;;;13.66;53.94;99157.72;5018471;28;20176;-73
2021/11/29 03:04:45;;;;;;;18.90;10.70;;;;;;;13.79;53.74;99158.31;5036175;28;20176;-73
2021/11/29 03:07:11;;;;;;;17.87;10.50;;;;;;;13.53;54.06;99160.69;5001850;28;20199;-74
2021/11/29 03:09:37;;;;;;;18.27;11.27;;;;;;;13.21;54.36;99150.22;5001667;28;20181;-74
2021/11/29 03:12:04;;;;;;;19.70;10.83;;;;;;;13.76;53.95;99158.59;5069563;23;20237;-66
2021/11/29 03:14:29;;;;;;;19.23;11.80;;;;;;;13.77;53.92;99154.94;5055698;28;20210;-66
2021/11/29 03:16:55;;;;;;;18.40;11.70;;;;;;;14.07;53.28;99162.78;5071120;28;20181;-67
2021/11/29 03:19:22;;;;;;;17.40;11.17;;;;;;;13.93;53.78;99154.34;5055618;28;20174;-67
2021/11/29 03:21:48;;;;;;;16.63;10.97;;;;;;;13.74;53.77;99155.19;5055474;28;20291;-68
2021/11/29 03:24:14;;;;;;;21.00;12.30;;;;;;;13.63;54.28;99163.38;5055512;28;20180;-68
2021/11/29 03:26:40;;;;;;;21.33;11.90;;;;;;;13.51;54.51;99164.50;5055621;28;20180;-68
2021/11/29 03:29:08;;;;;;;20.17;12.27;;;;;;;13.89;54.26;99167.19;5055597;28;20176;-68
2021/11/29 03:31:34;;;;;;;17.60;10.80;;;;;;;13.79;54.33;99158.31;5053917;28;20198;-68
2021/11/29 03:34:04;;;;;;;17.63;11.23;;;;;;;14.11;53.82;99170.53;5054321;28;20208;-68
2021/11/29 03:36:33;;;;;;;20.20;11.80;;;;;;;13.87;53.96;99166.50;5055343;28;20183;-67
2021/11/29 03:39:00;;;;;;;18.57;11.77;;;;;;;13.93;53.62;99165.06;5053836;28;20177;-67
2021/11/29 03:41:28;;;;;;;20.80;11.40;;;;;;;14.20;53.62;99175.06;5055402;28;20572;-67
2021/11/29 03:43:54;;;;;;;19.60;11.20;;;;;;;14.03;53.30;99164.06;5054321;28;20511;-68
2021/11/29 03:46:19;;;;;;;19.60;12.07;;;;;;;13.93;53.50;99159.72;5053730;28;20204;-68
2021/11/29 03:48:44;;;;;;;18.00;11.27;;;;;;;14.02;53.33;99165.06;5054769;28;20264;-68
2021/11/29 03:51:09;;;;;;;17.83;10.63;;;;;;;13.97;53.40;99161.97;5055011;28;20216;-69
2021/11/29 03:53:35;;;;;;;24.47;10.57;;;;;;;14.08;53.92;99163.63;5055563;28;20561;-68
2021/11/29 03:56:00;;;;;;;20.73;11.40;;;;;;;13.80;53.63;99164.53;5053995;28;20652;-68
2021/11/29 03:58:26;;;;;;;18.70;10.53;;;;;;;13.83;53.86;99170.44;5054717;28;20186;-66
2021/11/29 04:00:52;;;;;;;17.10;10.23;;;;;;;13.95;54.08;99174.66;5054095;28;20210;-69
2021/11/29 04:03:17;;;;;;;20.70;10.80;;;;;;;14.00;53.71;99174.22;5054905;28;20639;-67
2021/11/29 04:05:42;;;;;;;20.93;10.70;;;;;;;14.02;54.03;99167.72;5053364;28;20617;-68
2021/11/29 04:08:08;;;;;;;19.90;12.17;;;;;;;13.95;53.54;99169.31;5053805;28;20263;-68
2021/11/29 04:10:34;;;;;;;18.93;11.43;;;;;;;14.14;53.98;99179.19;5054205;28;20208;-68
2021/11/29 04:12:59;;;;;;;20.23;11.87;;;;;;;13.92;54.26;99174.09;5053194;28;20193;-68
2021/11/29 04:15:24;;;;;;;18.67;11.80;;;;;;;14.07;54.17;99178.88;5054526;28;20291;-68
2021/11/29 04:17:50;;;;;;;24.60;13.87;;;;;;;14.12;54.15;99180.28;5053187;28;20564;-68
2021/11/29 04:20:16;;;;;;;24.00;13.57;;;;;;;14.15;54.17;99186.22;5054158;28;20209;-68
2021/11/29 04:22:45;;;;;;;22.70;13.07;;;;;;;14.21;54.39;99187.50;5054664;28;20172;-68
2021/11/29 04:25:17;;;;;;;24.53;13.07;;;;;;;14.29;54.25;99201.03;5054707;28;20210;-68
2021/11/29 04:27:43;;;;;;;21.77;12.43;;;;;;;14.17;54.13;99188.78;5036652;28;20253;-73
2021/11/29 04:30:16;;;;;;;23.47;13.00;;;;;;;14.28;54.24;99193.97;5053084;28;20546;-68
2021/11/29 04:32:42;;;;;;;21.97;13.57;;;;;;;14.12;53.85;99188.31;5053472;28;20183;-68
2021/11/29 04:35:08;;;;;;;23.53;13.30;;;;;;;14.21;53.98;99179.44;5052953;28;20219;-68
2021/11/29 04:37:33;;;;;;;28.03;14.57;;;;;;;14.22;53.79;99178.44;5054124;28;20646;-68
2021/11/29 04:39:59;;;;;;;23.53;12.83;;;;;;;14.18;53.91;99177.91;5054210;28;20184;-67
2021/11/29 04:42:24;;;;;;;22.03;13.23;;;;;;;14.15;54.22;99175.50;5054309;28;20188;-68
2021/11/29 04:44:49;;;;;;;25.93;14.17;;;;;;;14.18;54.23;99183.25;5052769;28;20184;-68
2021/11/29 04:47:15;;;;;;;26.17;14.37;;;;;;;14.14;54.20;99178.31;5053078;28;20207;-68
2021/11/29 04:49:42;;;;;;;23.83;13.73;;;;;;;14.21;54.35;99195.53;5054001;28;20227;-67
2021/11/29 04:52:07;;;;;;;23.50;13.63;;;;;;;14.15;53.92;99188.06;5053880;28;20232;-72
2021/11/29 04:54:33;;;;;;;20.73;12.87;;;;;;;13.90;54.09;99192.19;5052618;28;20199;-68
2021/11/29 04:56:58;;;;;;;24.07;13.00;;;;;;;13.78;54.28;99183.44;5052879;28;20189;-68
2021/11/29 04:59:24;;;;;;;19.93;12.33;;;;;;;13.89;54.19;99188.66;5053869;28;20208;-67
2021/11/29 05:01:49;;;;;;;22.07;12.50;;;;;;;13.82;54.38;99178.63;5053790;28;20233;-68
2021/11/29 05:04:14;;;;;;;19.87;12.43;;;;;;;13.93;53.60;99183.84;5052628;28;20169;-68
2021/11/29 05:06:39;;;;;;;21.07;11.97;;;;;;;13.85;53.96;99191.75;5053662;28;20184;-68
2021/11/29 05:09:06;;;;;;;23.00;11.70;;;;;;;14.02;54.20;99194.56;5053726;28;20172;-68
2021/11/29 05:11:32;;;;;;;19.27;11.37;;;;;;;13.89;53.82;99190.47;5053598;28;20201;-68
2021/11/29 05:13:57;;;;;;;19.80;11.70;;;;;;;13.91;53.90;99183.16;5053902;28;20192;-68
2021/11/29 05:16:23;;;;;;;17.60;11.30;;;;;;;13.87;53.80;99184.41;5053930;28;20209;-68
2021/11/29 05:18:48;;;;;;;18.77;11.47;;;;;;;13.71;53.90;99185.81;5053991;28;20175;-68
2021/11/29 05:21:13;;;;;;;19.57;11.07;;;;;;;13.67;54.42;99188.91;5053189;28;20206;-68
2021/11/29 05:23:39;;;;;;;19.20;11.07;;;;;;;13.72;54.21;99192.03;5052612;28;20230;-68
2021/11/29 05:26:04;;;;;;;17.73;11.63;;;;;;;13.77;53.87;99195.16;5053513;28;20180;-68
2021/11/29 05:28:29;;;;;;;18.17;10.73;;;;;;;13.74;54.10;99204.28;5053652;28;20538;-68
2021/11/29 05:30:55;;;;;;;17.23;10.03;;;;;;;13.77;53.88;99204.03;5053598;28;20239;-68
2021/11/29 05:33:20;;;;;;;17.10;10.00;;;;;;;13.70;54.28;99207.41;5052710;28;20614;-68
2021/11/29 05:35:45;;;;;;;15.80;9.50;;;;;;;13.75;53.97;99215.88;5054125;28;20188;-68
2021/11/29 05:38:11;;;;;;;15.90;10.37;;;;;;;13.59;54.06;99213.75;5057238;28;20179;-68
2021/11/29 05:40:36;;;;;;;14.90;9.23;;;;;;;13.55;54.68;99216.84;5054886;28;20251;-68
2021/11/29 05:43:02;;;;;;;15.80;9.43;;;;;;;13.31;55.14;99220.75;5053707;28;20168;-69
2021/11/29 05:45:27;;;;;;;17.83;11.00;;;;;;;13.46;54.86;99221.22;5053753;28;20250;-68
2021/11/29 05:47:52;;;;;;;19.83;10.80;;;;;;;13.43;54.93;99227.69;5035889;28;20274;-69
2021/11/29 05:50:18;;;;;;;16.77;9.80;;;;;;;13.28;55.33;99229.06;5055332;28;20201;-69
2021/11/29 05:52:44;;;;;;;19.67;10.27;;;;;;;13.55;55.18;99243.66;5064034;28;20255;-68
2021/11/29 05:55:10;;;;;;;19.70;11.27;;;;;;;13.38;55.44;99247.84;5054527;28;20225;-68
2021/11/29 05:57:36;;;;;;;17.47;10.33;;;;;;;13.34;55.24;99249.94;5054295;28;20168;-68
2021/11/29 06:00:04;;;;;;;17.53;10.23;;;;;;;13.82;54.37;99251.88;5054242;28;20225;-68
2021/11/29 06:02:29;;;;;;;16.70;10.27;;;;;;;13.70;54.72;99247.63;5053733;28;20217;-68
2021/11/29 06:04:54;;;;;;;17.73;10.33;;;;;;;12.92;55.16;99243.84;5052749;28;20172;-67
2021/11/29 06:07:20;;;;;;;17.07;10.57;;;;;;;13.41;54.86;99261.84;5053494;28;20180;-66
2021/11/29 06:09:45;;;;;;;16.37;10.10;;;;;;;13.59;54.61;99263.84;5053175;28;20226;-67
2021/11/29 06:12:10;;;;;;;19.03;11.20;;;;;;;13.44;54.90;99261.56;5052929;28;20202;-68
2021/11/29 06:14:36;;;;;;;18.53;10.93;;;;;;;13.46;54.97;99269.47;5052785;28;20192;-67
2021/11/29 06:17:01;;;;;;;20.17;11.70;;;;;;;13.85;54.59;99273.06;5034733;28;20262;-66
2021/11/29 06:19:27;;;;;;;20.27;11.33;;;;;;;13.75;54.76;99264.13;5051907;28;20215;-67
2021/11/29 06:21:52;;;;;;;25.27;12.70;;;;;;;13.81;54.63;99273.47;5052587;28;20199;-68
2021/11/29 06:24:17;;;;;;;23.87;12.83;;;;;;;14.02;54.26;99275.03;5035058;28;20172;-69
2021/11/29 06:26:43;;;;;;;23.27;12.10;;;;;;;14.09;54.22;99278.84;5052718;28;20175;-69
2021/11/29 06:29:08;;;;;;;22.90;12.37;;;;;;;13.74;54.73;99278.53;5052679;28;20167;-68
2021/11/29 06:31:34;;;;;;;19.10;12.03;;;;;;;13.80;54.31;99282.50;5052908;28;20219;-68
2021/11/29 06:33:59;;;;;;;21.90;12.53;;;;;;;13.87;54.54;99273.75;5056448;28;20717;-69
2021/11/29 06:36:27;;;;;;;19.70;12.37;;;;;;;13.86;55.14;99296.22;5056391;28;20562;-68
2021/11/29 06:38:52;;;;;;;23.40;13.37;;;;;;;14.02;54.46;99290.28;5056363;28;20190;-68
2021/11/29 06:41:19;;;;;;;24.23;13.50;;;;;;;13.05;55.84;99303.41;5054910;28;20278;-68
2021/11/29 06:43:45;;;;;;;29.53;14.60;;;;;;;13.38;55.57;99307.66;5056679;28;20185;-68
2021/11/29 06:46:11;;;;;;;26.63;14.40;;;;;;;13.87;54.60;99300.59;5054989;28;20179;-67
2021/11/29 06:48:36;;;;;;;29.80;15.30;;;;;;;13.27;55.87;99320.28;5056048;28;20164;-68
2021/11/29 06:51:02;;;;;;;34.97;15.63;;;;;;;12.28;57.23;99310.09;5054823;28;20518;-67
2021/11/29 06:53:27;;;;;;;32.00;15.60;;;;;;;12.70;57.59;99324.34;5056578;28;20680;-69
2021/11/29 06:55:55;;;;;;;34.73;14.93;;;;;;;13.72;55.18;99313.50;5056158;28;20249;-68
2021/11/29 06:58:21;;;;;;;35.37;17.63;;;;;;;11.02;59.67;99318.53;5054991;28;20254;-68
2021/11/29 07:00:47;;;;;;;37.27;16.57;;;;;;;11.68;59.43;99320.34;5055972;28;20191;-69
2021/11/29 07:03:13;;;;;;;47.87;18.60;;;;;;;10.82;61.66;99331.66;5056017;28;20191;-69
2021/11/29 07:05:38;;;;;;;40.20;17.50;;;;;;;11.60;58.58;99317.44;5055801;28;20601;-67
2021/11/29 07:08:04;;;;;;;37.57;17.90;;;;;;;11.44;59.84;99335.66;5055791;28;20179;-69
2021/11/29 07:10:29;;;;;;;35.43;17.17;;;;;;;11.40;59.45;99332.38;5055698;28;20661;-69
2021/11/29 07:12:55;;;;;;;29.07;14.87;;;;;;;10.71;60.57;99336.94;5054450;28;20211;-69
2021/11/29 07:15:23;;;;;;;29.27;13.90;;;;;;;11.11;60.80;99345.38;5054618;28;20250;-68
2021/11/29 07:17:49;;;;;;;30.17;14.00;;;;;;;10.61;60.91;99338.63;5054255;28;20172;-68
2021/11/29 07:20:15;;;;;;;30.10;15.00;;;;;;;11.04;60.59;99343.31;5055345;28;20600;-68
2021/11/29 07:22:40;;;;;;;29.37;14.87;;;;;;;11.11;60.04;99342.69;5055338;28;20178;-68
2021/11/29 07:25:06;;;;;;;31.50;14.90;;;;;;;11.91;59.49;99353.25;5054318;28;20176;-68
2021/11/29 07:27:32;;;;;;;31.97;14.20;;;;;;;11.23;59.78;99365.78;5055462;28;20179;-68
2021/11/29 07:29:59;;;;;;;34.57;14.83;;;;;;;12.44;57.48;99355.97;5056192;28;20177;-69
2021/11/29 07:32:25;;;;;;;33.60;14.57;;;;;;;11.50;59.36;99373.41;5054064;28;20192;-69
2021/11/29 07:34:50;;;;;;;32.27;14.07;;;;;;;11.72;59.33;99361.00;5054265;28;20207;-69
2021/11/29 07:37:16;;;;;;;30.60;13.23;;;;;;;11.45;59.01;99356.91;5053977;28;20177;-68
2021/11/29 07:39:45;;;;;;;27.87;13.57;;;;;;;12.26;57.92;99360.16;5037464;28;20221;-69
2021/11/29 07:42:11;;;;;;;29.93;14.30;;;;;;;11.03;59.62;99361.13;5053482;28;20227;-68
2021/11/29 07:44:36;;;;;;;31.03;14.87;;;;;;;10.76;59.61;99356.09;5054081;28;20164;-68
2021/11/29 07:47:01;;;;;;;33.53;14.53;;;;;;;10.68;60.95;99374.53;5054004;28;20175;-67
2021/11/29 07:49:27;;;;;;;26.37;12.23;;;;;;;9.58;62.11;99374.66;5037150;28;20226;-68
2021/11/29 07:51:53;;;;;;;30.37;14.33;;;;;;;10.68;60.45;99377.19;5054897;28;20302;-68
2021/11/29 07:54:18;;;;;;;29.90;13.60;;;;;;;10.49;61.35;99387.59;5054868;28;20721;-68
2021/11/29 07:56:44;;;;;;;27.43;13.43;;;;;;;9.79;62.06;99384.75;5053523;28;20260;-68
2021/11/29 07:59:09;;;;;;;28.77;12.67;;;;;;;9.62;63.08;99391.28;5054797;28;20176;-69
2021/11/29 08:01:34;;;;;;;32.83;13.43;;;;;;;10.21;61.27;99388.78;5060185;28;20209;-69
2021/11/29 08:03:59;;;;;;;29.53;13.87;;;;;;;10.76;60.05;99398.81;5071597;28;20628;-69
2021/11/29 08:06:25;;;;;;;30.07;13.57;;;;;;;11.33;60.14;99394.44;5070083;28;20160;-69
2021/11/29 08:08:50;;;;;;;32.07;13.87;;;;;;;10.89;59.23;99391.59;5062288;28;20226;-69
2021/11/29 08:11:15;;;;;;;28.70;12.50;;;;;;;10.77;60.67;99397.00;5054893;28;20262;-68
2021/11/29 08:13:41;;;;;;;25.47;11.73;;;;;;;10.10;60.74;99396.69;5055222;28;20223;-69
2021/11/29 08:16:06;;;;;;;26.00;13.10;;;;;;;10.61;60.76;99410.66;5054526;28;20266;-69
2021/11/29 08:18:31;;;;;;;29.83;12.80;;;;;;;11.00;59.76;99414.78;5054704;28;20187;-69
2021/11/29 08:20:57;;;;;;;22.70;9.70;;;;;;;9.86;61.54;99399.34;5054660;28;20674;-68
2021/11/29 08:23:22;;;;;;;21.53;11.10;;;;;;;10.63;59.99;99400.72;5053518;28;20696;-68
2021/11/29 08:25:48;;;;;;;19.27;11.23;;;;;;;10.57;59.66;99393.19;5053197;28;20530;-67
2021/11/29 08:28:14;;;;;;;22.43;12.07;;;;;;;11.29;58.50;99407.19;5053590;28;20179;-69
2021/11/29 08:30:41;;;;;;;22.90;12.07;;;;;;;10.93;59.53;99409.06;5054595;28;20249;-70
2021/11/29 08:33:06;;;;;;;19.83;11.93;;;;;;;11.54;58.02;99408.78;5054461;28;20546;-69
2021/11/29 08:35:32;;;;;;;23.50;12.00;;;;;;;11.16;59.24;99420.66;5054308;28;20184;-69
2021/11/29 08:37:58;;;;;;;17.60;11.70;;;;;;;11.93;58.11;99430.66;5053088;28;20171;-69
2021/11/29 08:40:27;;;;;;;26.30;12.80;;;;;;;12.61;57.46;99427.66;5054403;28;20249;-68
2021/11/29 08:42:58;;;;;;;20.47;11.10;;;;;;;11.53;57.38;99417.78;5054317;28;20178;-68
2021/11/29 08:45:24;;;;;;;16.47;11.00;;;;;;;11.87;58.39;99437.31;5054036;28;20188;-68
2021/11/29 08:47:50;;;;;;;15.90;10.07;;;;;;;11.68;58.49;99439.75;5052874;28;20182;-68
2021/11/29 08:50:15;;;;;;;14.67;10.13;;;;;;;11.78;57.94;99430.03;5054065;28;20195;-68
2021/11/29 08:52:44;;;;;;;19.87;11.27;;;;;;;11.45;58.59;99429.03;5053692;28;20172;-68
2021/11/29 08:55:09;;;;;;;18.03;11.43;;;;;;;11.35;58.59;99430.75;5053327;28;20172;-68
2021/11/29 08:57:35;;;;;;;18.50;11.37;;;;;;;11.00;59.22;99441.47;5054095;28;20176;-67
2021/11/29 09:00:01;;;;;;;17.20;11.97;;;;;;;11.52;58.57;99440.09;5053768;28;20199;-69
2021/11/29 09:02:27;;;;;;;18.80;12.03;;;;;;;13.10;55.90;99435.09;5068889;28;20169;-69
2021/11/29 09:04:54;;;;;;;22.80;12.80;;;;;;;13.30;55.20;99435.22;5053335;28;20639;-69
2021/11/29 09:07:20;;;;;;;21.87;12.83;;;;;;;13.33;54.72;99437.66;5053595;28;20200;-69
2021/11/29 09:09:45;;;;;;;19.33;12.30;;;;;;;12.78;54.93;99427.09;5052238;28;20541;-69
2021/11/29 09:12:12;;;;;;;16.57;11.53;;;;;;;12.54;55.78;99442.53;5081072;22;20287;-72
2021/11/29 09:14:37;;;;;;;20.00;12.40;;;;;;;13.16;54.81;99441.75;5053792;28;20561;-73
2021/11/29 09:17:02;;;;;;;20.10;12.90;;;;;;;13.72;53.74;99439.53;5035793;28;20183;-74
2021/11/29 09:19:28;;;;;;;20.80;13.20;;;;;;;13.40;53.86;99437.00;5054505;28;20531;-73
2021/11/29 09:21:53;;;;;;;23.97;12.47;;;;;;;12.67;55.67;99453.09;5036076;28;20199;-71
2021/11/29 09:24:19;;;;;;;20.93;12.33;;;;;;;13.61;54.73;99462.91;5019800;28;20173;-72
2021/11/29 09:26:45;;;;;;;18.80;11.90;;;;;;;12.83;55.49;99462.38;5036034;28;20222;-74
2021/11/29 09:29:10;;;;;;;20.73;12.03;;;;;;;12.61;56.10;99464.28;5054265;28;20167;-73
2021/11/29 09:31:36;;;;;;;23.63;13.60;;;;;;;12.60;54.69;99451.88;5038607;28;20192;-73
2021/11/29 09:34:01;;;;;;;25.30;14.57;;;;;;;12.65;55.63;99457.72;5040982;28;20246;-73
2021/11/29 09:36:26;;;;;;;23.77;13.90;;;;;;;13.11;55.04;99457.38;5056064;28;20168;-72
2021/11/29 09:38:51;;;;;;;24.33;14.17;;;;;;;12.56;55.40;99456.63;5053310;28;20176;-72
2021/11/29 09:41:19;;;;;;;24.33;14.50;;;;;;;12.14;56.20;99461.84;5054122;28;20565;-73
2021/11/29 09:43:45;;;;;;;25.10;13.83;;;;;;;12.94;55.92;99464.13;5053199;28;20173;-73
2021/11/29 09:46:10;;;;;;;21.27;13.57;;;;;;;10.17;59.27;99451.28;5035951;28;20202;-74
2021/11/29 09:48:36;;;;;;;24.27;14.80;;;;;;;12.15;56.74;99462.69;5035936;28;20262;-72
2021/11/29 09:51:01;;;;;;;24.30;14.27;;;;;;;12.47;56.91;99462.75;5035474;28;20191;-73
2021/11/29 09:53:30;;;;;;;26.67;15.63;;;;;;;13.32;54.79;99460.06;5035100;28;20278;-72
2021/11/29 09:55:56;;;;;;;28.20;16.23;;;;;;;13.62;54.96;99459.25;5035694;28;20663;-72
2021/11/29 09:58:21;;;;;;;27.83;14.83;;;;;;;12.01;56.42;99461.16;5035379;28;20203;-72
2021/11/29 10:00:51;;;;;;;23.47;13.37;;;;;;;13.55;55.57;99466.97;5035427;28;20675;-72
2021/11/29 10:03:17;;;;;;;23.30;13.93;;;;;;;12.53;56.31;99456.88;5035123;28;20177;-72
2021/11/29 10:05:43;;;;;;;21.43;13.20;;;;;;;13.11;55.13;99452.88;5035467;28;20173;-72
2021/11/29 10:08:38;;;;;;;20.50;14.03;;;;;;;13.98;54.56;99465.91;5057362;28;20174;-71
2021/11/29 10:11:06;;;;;;;25.97;14.63;;;;;;;12.83;56.82;99457.03;5038885;28;20204;-73
2021/11/29 10:13:48;;;;;;;26.50;16.47;;;;;;;13.01;56.19;99460.00;5056798;28;20197;-71
2021/11/29 10:16:40;;;;;;;23.40;14.80;;;;;;;11.88;57.96;99458.59;5056743;28;20194;-72
2021/11/29 10:19:11;;;;;;;26.77;15.00;;;;;;;12.76;56.65;99450.47;5038850;28;20164;-72
2021/11/29 10:21:37;;;;;;;22.03;14.03;;;;;;;12.07;57.90;99466.00;5038822;28;20197;-73
2021/11/29 10:24:03;;;;;;;24.53;14.57;;;;;;;12.33;57.68;99466.56;5057403;28;20712;-73
2021/11/29 10:26:34;;;;;;;25.97;15.47;;;;;;;12.34;57.69;99467.41;5022807;28;20180;-73
2021/11/29 10:29:03;;;;;;;23.20;14.77;;;;;;;12.63;57.18;99468.53;5038792;28;20216;-73
2021/11/29 10:31:40;;;;;;;25.67;15.67;;;;;;;12.43;58.08;99464.84;5039028;28;20196;-73
2021/11/29 10:34:15;;;;;;;25.43;13.57;;;;;;;12.37;58.20;99478.72;5057026;28;20283;-73
2021/11/29 10:36:41;;;;;;;28.07;15.80;;;;;;;12.01;58.41;99468.31;5038900;28;20541;-73
2021/11/29 10:39:18;;;;;;;27.77;15.63;;;;;;;13.04;56.46;99459.72;5056124;28;20194;-73
2021/11/29 10:41:47;;;;;;;34.47;18.37;;;;;;;13.09;57.45;99470.06;5038770;28;20207;-73
2021/11/29 10:44:17;;;;;;;33.00;18.57;;;;;;;12.39;57.94;99481.25;5038986;28;20180;-73
2021/11/29 10:46:45;;;;;;;26.57;15.80;;;;;;;13.19;57.05;99472.81;5038867;28;20166;-73
2021/11/29 10:49:13;;;;;;;28.23;16.20;;;;;;;12.52;58.02;99473.91;5021963;28;20177;-73
2021/11/29 10:51:40;;;;;;;28.90;15.90;;;;;;;12.87;57.57;99479.03;5056105;28;20245;-73
2021/11/29 10:54:16;;;;;;;28.37;14.87;;;;;;;11.46;59.53;99478.81;5056133;28;20193;-74
2021/11/29 10:56:42;;;;;;;28.27;16.40;;;;;;;11.31;58.58;99472.03;5021614;28;20211;-73
2021/11/29 10:59:11;;;;;;;26.00;15.30;;;;;;;12.70;58.00;99474.25;5038790;28;20242;-72
2021/11/29 11:01:46;;;;;;;24.57;14.73;;;;;;;12.38;58.44;99474.22;5021691;28;20618;-72
2021/11/29 11:04:18;;;;;;;22.33;13.80;;;;;;;12.48;58.53;99473.31;5022564;28;20556;-73
2021/11/29 11:06:46;;;;;;;24.97;15.13;;;;;;;12.14;58.62;99480.56;5039362;28;20161;-72
2021/11/29 11:09:15;;;;;;;23.40;13.70;;;;;;;11.97;58.29;99478.41;5038593;28;20168;-72
2021/11/29 11:11:45;;;;;;;22.57;13.57;;;;;;;11.18;60.83;99477.47;5038100;28;20200;-73
2021/11/29 11:14:15;;;;;;;21.57;13.30;;;;;;;12.24;57.55;99469.13;5038091;28;20207;-72